Lahaina, HI

3:58 PM HST on February 25, 2017 (GMT -1000)
West Mahi Pua | | Change Station

Elev 256 ft 20.92 °N, 156.68 °W | Updated 30 seconds ago

Partly Cloudy
Partly Cloudy
75.0 °F
Feels Like 77 °F
N
2.0
Wind Variable Wind from SW

Today
High -- | Low -- °F
--% Chance of Precip.
Yesterday
High -- | Low -- °F
Precip. -- in
Pressure 29.97 in
Visibility 15.0 miles
Clouds Scattered Clouds 3500 ft
Heat Index 77 °F
Dew Point 61 °F
Humidity 63%
Rainfall 0.00 in
Snow Depth Not available.
6:49 AM 6:29 PM
Waning Crescent, 0% visible
METAR PHJH 260145Z 36008KT 15SM SCT035 23/15 A2997
Pressure 29.97 in
Visibility 15.0 miles
Clouds Scattered Clouds 3500 ft
Heat Index 77 °F
Dew Point 61 °F
Humidity 63%
Rainfall 0.00 in
Snow Depth Not available.
6:49 AM 6:29 PM
Waning Crescent, 0% visible
METAR PHJH 260145Z 36008KT 15SM SCT035 23/15 A2997

Get Your Daily Forecast Email!

Thanks for signing up!

Be on the lookout for a verification email in your inbox.

You'll start receiving the daily forecast at 8 AM.

×

10-Day Weather Forecast

Almanac

Astronomy

Feb. 25, 2017 Rise Set
Actual Time
Civil Twilight
Nautical Twilight
Astronomical Twilight
Moon
Length of Visible Light
Length of Day
Tomorrow will be .
, % of the Moon is Illuminated

Today's Extremes

State Highs State Lows

Community

WunderPhotos

Upload Photos

1,962,540 photos uploaded!

WunderBlog® & News

Nearby

Air Quality

  Air Quality AQ Index Pollutant
Not available.

Snow Depth

Station Depth Elevation

Earthquake Activity

City Distance Mag. Time & Date
Minimum magnitude displayed is 2.5.

Coastal Water Temperatures

Place Temperature

Stations

Nearby Weather Stations

Station Location Temp. Windchill Dew Point Humidity Wind Precip. Elev Updated Type
                   

Watches & Warnings

There are currently no watches in effect.